createdAt,value
2019-01-29T00:03:18.771Z,94.47
2019-01-29T00:08:25.779Z,84.47
2019-01-29T00:13:32.916Z,74.13
2019-01-29T00:18:39.962Z,65.07
2019-01-29T00:23:47.118Z,68.33
2019-01-29T00:28:54.278Z,70.13
2019-01-29T00:34:02.230Z,75.37
2019-01-29T00:39:10.248Z,64.63
2019-01-29T00:44:17.449Z,69.42
2019-01-29T00:49:24.578Z,64.80
2019-01-29T00:54:31.662Z,63.33
2019-01-29T00:59:39.235Z,63.27
2019-01-29T01:04:46.805Z,71.80
2019-01-29T01:09:57.288Z,69.73
2019-01-29T01:15:03.944Z,69.73
2019-01-29T01:20:13.535Z,79.80
2019-01-29T01:25:22.512Z,90.90
2019-01-29T01:30:29.814Z,109.27
2019-01-29T01:35:36.925Z,108.53
2019-01-29T01:40:43.972Z,98.00
2019-01-29T01:45:50.983Z,132.57
2019-01-29T01:50:59.175Z,81.30
2019-01-29T01:56:06.554Z,88.87
2019-01-29T02:01:14.711Z,102.80
2019-01-29T02:06:22.216Z,88.22
2019-01-29T02:11:29.301Z,77.17
2019-01-29T02:16:36.426Z,76.57
2019-01-29T02:21:43.504Z,90.77
2019-01-29T02:26:50.704Z,85.10
2019-01-29T02:31:58.150Z,77.87
2019-01-29T02:37:05.983Z,82.35
2019-01-29T02:42:13.214Z,104.80
2019-01-29T02:47:20.254Z,111.30
2019-01-29T02:52:27.923Z,94.07
2019-01-29T02:57:35.023Z,115.70
2019-01-29T03:02:42.223Z,96.50
2019-01-29T03:07:49.446Z,83.83
2019-01-29T03:12:57.680Z,92.43
2019-01-29T03:18:04.776Z,94.77
2019-01-29T03:23:11.974Z,97.53
2019-01-29T03:28:19.073Z,86.53
2019-01-29T03:33:26.254Z,87.23
2019-01-29T03:38:34.604Z,94.47
2019-01-29T03:43:41.695Z,108.10
2019-01-29T03:48:48.905Z,85.87
2019-01-29T03:53:55.895Z,90.47
2019-01-29T03:59:03.025Z,97.50
2019-01-29T04:04:10.462Z,75.20
2019-01-29T04:09:17.850Z,91.87
2019-01-29T04:14:25.339Z,89.63
2019-01-29T04:19:32.650Z,83.93
2019-01-29T04:24:39.741Z,85.53
2019-01-29T04:29:47.849Z,100.97
2019-01-29T04:34:54.845Z,127.80
2019-01-29T04:40:01.972Z,126.93
2019-01-29T04:45:11.984Z,95.63
2019-01-29T04:50:21.041Z,86.93
2019-01-29T04:55:28.108Z,93.20
2019-01-29T05:00:35.221Z,86.40
2019-01-29T05:05:42.321Z,93.43
2019-01-29T05:10:49.955Z,105.97
2019-01-29T05:15:57.096Z,99.43
2019-01-29T05:21:04.189Z,88.40
2019-01-29T05:26:11.305Z,129.93
2019-01-29T05:31:18.565Z,105.47
2019-01-29T05:36:25.576Z,82.47
2019-01-29T05:41:32.665Z,94.43
2019-01-29T05:46:40.023Z,85.33
2019-01-29T05:51:47.234Z,98.90
2019-01-29T05:56:54.366Z,88.97
2019-01-29T06:02:01.816Z,87.93
2019-01-29T06:07:08.915Z,106.70
2019-01-29T06:12:16.235Z,97.88
2019-01-29T06:17:27.516Z,96.70
2019-01-29T06:22:32.948Z,121.83
2019-01-29T06:27:40.562Z,92.90
2019-01-29T06:32:47.659Z,94.70
2019-01-29T06:37:54.713Z,95.07
2019-01-29T06:43:02.013Z,100.27
2019-01-29T06:48:09.226Z,94.47
2019-01-29T06:53:16.332Z,149.55
2019-01-29T06:58:24.674Z,122.17
2019-01-29T07:03:31.801Z,158.63
2019-01-29T07:08:38.851Z,186.37
2019-01-29T07:13:46.077Z,101.87
2019-01-29T07:19:06.066Z,101.63
2019-01-29T07:24:13.063Z,197.27
2019-01-29T07:29:20.695Z,198.03
2019-01-29T07:34:27.799Z,163.83
2019-01-29T07:39:34.931Z,106.57
2019-01-29T07:44:43.295Z,181.63
2019-01-29T07:49:50.396Z,199.50
2019-01-29T07:54:57.495Z,154.07
2019-01-29T08:00:06.885Z,77.83
2019-01-29T08:05:15.004Z,86.53
2019-01-29T08:10:22.117Z,85.05
2019-01-29T08:15:29.241Z,144.37
2019-01-29T08:20:36.350Z,65.93
2019-01-29T08:25:47.998Z,118.53
2019-01-29T08:30:52.210Z,87.87
2019-01-29T08:35:59.223Z,89.97
2019-01-29T08:41:06.653Z,77.43
2019-01-29T08:46:13.875Z,78.47
2019-01-29T08:51:21.017Z,71.45
2019-01-29T08:56:28.244Z,73.77
2019-01-29T09:01:35.665Z,71.50
2019-01-29T09:06:42.920Z,67.83
2019-01-29T09:11:50.147Z,61.50
2019-01-29T09:16:57.449Z,69.43
2019-01-29T09:22:04.540Z,66.27
2019-01-29T09:27:12.151Z,65.43
2019-01-29T09:32:22.488Z,62.17
2019-01-29T09:37:29.586Z,86.40
2019-01-29T09:42:36.755Z,66.97
2019-01-29T09:47:44.394Z,59.27
2019-01-29T09:52:51.927Z,85.37
2019-01-29T09:57:59.028Z,75.80
2019-01-29T10:03:06.612Z,75.77
2019-01-29T10:08:14.737Z,140.00
2019-01-29T10:13:23.202Z,50.03
2019-01-29T10:18:30.793Z,70.03
2019-01-29T10:23:37.924Z,71.30
2019-01-29T10:28:45.838Z,41.73
2019-01-29T10:33:54.461Z,211.80
2019-01-29T10:39:01.572Z,233.57
2019-01-29T10:44:10.239Z,181.02
2019-01-29T10:49:17.293Z,65.07
2019-01-29T10:54:25.929Z,155.40
2019-01-29T10:59:33.095Z,140.17
2019-01-29T11:04:40.873Z,89.53
2019-01-29T11:09:48.537Z,155.70
2019-01-29T11:14:55.788Z,46.47
2019-01-29T11:20:03.144Z,81.30
2019-01-29T11:25:14.656Z,75.10
2019-01-29T11:30:24.303Z,23.20
2019-01-29T11:35:31.516Z,36.13
2019-01-29T11:40:38.699Z,36.77
2019-01-29T11:45:49.015Z,54.17
2019-01-29T11:50:56.420Z,37.40
2019-01-29T11:56:04.694Z,21.60
2019-01-29T12:01:14.464Z,28.30
2019-01-29T12:06:21.676Z,51.13
2019-01-29T12:11:28.974Z,45.40
2019-01-29T12:16:36.313Z,47.13
2019-01-29T12:21:43.577Z,20.43
2019-01-29T12:26:50.773Z,23.00
2019-01-29T12:31:58.241Z,18.77
2019-01-29T12:37:06.366Z,14.90
2019-01-29T12:42:14.891Z,16.80
2019-01-29T12:47:22.196Z,12.07
2019-01-29T12:52:51.315Z,8.67
2019-01-29T12:57:58.436Z,11.87
2019-01-29T13:03:06.280Z,13.07
2019-01-29T13:08:13.612Z,14.27
2019-01-29T13:13:20.888Z,12.77
2019-01-29T13:18:29.214Z,14.70
2019-01-29T13:23:36.669Z,12.10
2019-01-29T13:28:43.924Z,15.83
2019-01-29T13:33:52.054Z,13.53
2019-01-29T13:39:00.422Z,11.53
2019-01-29T13:44:07.624Z,9.50
2019-01-29T13:49:14.852Z,26.10
2019-01-29T13:54:23.864Z,25.60
2019-01-29T13:59:30.769Z,12.30
2019-01-29T14:04:37.862Z,13.13
2019-01-29T14:09:45.288Z,10.70
2019-01-29T14:14:52.379Z,12.13
2019-01-29T14:19:59.637Z,12.83
2019-01-29T14:25:07.194Z,23.77
2019-01-29T14:30:17.088Z,13.13
2019-01-29T14:35:24.429Z,16.53
2019-01-29T14:40:31.747Z,24.97
2019-01-29T14:45:38.896Z,29.47
2019-01-29T14:50:48.443Z,84.47
2019-01-29T14:55:55.658Z,34.30
2019-01-29T15:01:04.774Z,29.47
2019-01-29T15:06:12.460Z,15.40
2019-01-29T15:11:21.126Z,23.15
2019-01-29T15:16:53.309Z,31.77
2019-01-29T15:22:00.810Z,16.57
2019-01-29T15:27:08.416Z,13.70
2019-01-29T15:32:15.786Z,25.87
2019-01-29T15:37:22.936Z,27.35
2019-01-29T15:42:30.277Z,14.70
2019-01-29T15:47:37.616Z,12.73
2019-01-29T15:52:48.594Z,10.73
2019-01-29T15:57:53.707Z,14.33
2019-01-29T16:03:00.931Z,14.87
2019-01-29T16:08:08.761Z,26.20
2019-01-29T16:13:15.872Z,30.13
2019-01-29T16:18:23.129Z,25.67
2019-01-29T16:23:30.246Z,44.93
2019-01-29T16:28:37.563Z,18.07
2019-01-29T16:33:44.798Z,17.30
2019-01-29T16:38:53.731Z,17.57
2019-01-29T16:44:01.047Z,17.87
2019-01-29T16:49:08.207Z,17.53
2019-01-29T16:54:15.329Z,11.33
2019-01-29T16:59:22.540Z,14.10
2019-01-29T17:04:29.741Z,19.70
2019-01-29T17:09:37.335Z,19.60
2019-01-29T17:14:44.548Z,15.40
2019-01-29T17:19:51.825Z,31.77
2019-01-29T17:24:59.662Z,17.60
2019-01-29T17:30:09.251Z,13.13
2019-01-29T17:35:16.587Z,13.38
2019-01-29T17:40:24.104Z,110.73
2019-01-29T17:45:38.268Z,51.93
2019-01-29T17:50:46.179Z,17.20
2019-01-29T17:55:53.333Z,54.37
2019-01-29T18:01:02.590Z,75.40
2019-01-29T18:06:09.830Z,48.77
2019-01-29T18:11:17.215Z,43.87
2019-01-29T18:16:24.468Z,69.33
2019-01-29T18:21:32.072Z,42.20
2019-01-29T18:26:39.565Z,19.20
2019-01-29T18:31:46.779Z,19.53
2019-01-29T18:36:54.351Z,16.67
2019-01-29T18:42:01.824Z,101.87
2019-01-29T18:47:10.332Z,48.67
2019-01-29T18:52:17.583Z,70.10
2019-01-29T18:57:25.494Z,48.97
2019-01-29T19:02:32.698Z,74.63
2019-01-29T19:07:40.515Z,40.00
2019-01-29T19:12:49.767Z,19.67
2019-01-29T19:17:58.595Z,28.10
2019-01-29T19:23:06.183Z,23.37
2019-01-29T19:28:21.749Z,76.00
2019-01-29T19:33:22.607Z,42.97
2019-01-29T19:38:31.934Z,56.43
2019-01-29T19:43:39.800Z,110.13
2019-01-29T19:48:47.266Z,61.45
2019-01-29T19:53:55.002Z,20.50
2019-01-29T19:59:02.334Z,17.83
2019-01-29T20:04:09.775Z,33.40
2019-01-29T20:09:18.235Z,25.50
2019-01-29T20:14:26.238Z,15.13
2019-01-29T20:19:33.752Z,20.33
2019-01-29T20:24:42.163Z,32.10
2019-01-29T20:29:49.736Z,22.60
2019-01-29T20:34:56.999Z,21.27
2019-01-29T20:40:05.376Z,25.30
2019-01-29T20:45:13.127Z,18.53
2019-01-29T20:50:23.959Z,25.75
2019-01-29T20:55:31.444Z,22.20
2019-01-29T21:00:40.460Z,21.50
2019-01-29T21:05:47.810Z,21.60
2019-01-29T21:10:55.591Z,26.00
2019-01-29T21:16:03.858Z,18.13
2019-01-29T21:21:11.034Z,28.43
2019-01-29T21:26:18.312Z,32.75
2019-01-29T21:31:25.607Z,30.00
2019-01-29T21:36:32.831Z,51.00
2019-01-29T21:41:40.048Z,31.05
2019-01-29T21:46:47.366Z,27.13
2019-01-29T21:51:54.546Z,23.57
2019-01-29T21:57:02.024Z,40.40
2019-01-29T22:02:09.258Z,27.30
2019-01-29T22:07:16.510Z,24.50
2019-01-29T22:12:25.017Z,27.77
2019-01-29T22:17:32.876Z,31.07
2019-01-29T22:22:40.038Z,40.57
2019-01-29T22:27:47.520Z,33.83
2019-01-29T22:32:54.949Z,30.27
2019-01-29T22:38:02.125Z,27.10
2019-01-29T22:43:09.428Z,38.83
2019-01-29T22:48:18.953Z,30.17
2019-01-29T22:53:26.475Z,27.57
2019-01-29T22:58:33.746Z,33.47
2019-01-29T23:03:44.039Z,27.60
2019-01-29T23:08:51.477Z,32.90
2019-01-29T23:13:58.860Z,31.77
2019-01-29T23:19:06.768Z,37.07
2019-01-29T23:24:15.145Z,33.00
2019-01-29T23:29:23.436Z,33.97
2019-01-29T23:34:30.634Z,33.73
2019-01-29T23:39:39.109Z,33.57
2019-01-29T23:44:46.415Z,33.10
2019-01-29T23:49:53.720Z,31.43
2019-01-29T23:55:00.895Z,32.27
